Kent, Alabama
Current Conditions -  °F | °C
As of 8:55 AM on Sunday 23 Nov 2014 (Local Time) from KALX Reporting Station
Haze Haze  
Wind Chill: 60°   Ceiling: 600
Heat Index: 60°   Visibility: 3mi
Dew Point: 56°   Wind: 8mph
Humidity: 86%   Direction: 100°E
Pressure: 29.89"   Gusts: NA
Location:  32.62°N, 85.95°W
Report Text: KALX 231455Z AUTO 10007KT 3SM HZ OVC006 16/14 A2989 RMK AO2 LTG DSNT S AND W P0001 60004 T01580135
Loading
Personal Weather Stations






























Interactive Weather Map New forecast layout! Learn more

10-Day Weather Forecast

Advertisements
Track Severe Weather on mobile